createdAt,value
2018-11-29T00:00:51.255Z,931.09
2018-11-29T00:01:51.269Z,931.08
2018-11-29T00:02:51.294Z,931.09
2018-11-29T00:03:51.298Z,931.11
2018-11-29T00:04:51.484Z,931.08
2018-11-29T00:05:51.325Z,931.10
2018-11-29T00:06:51.339Z,931.11
2018-11-29T00:07:51.355Z,931.02
2018-11-29T00:08:51.384Z,931.08
2018-11-29T00:09:51.507Z,931.07
2018-11-29T00:10:51.398Z,931.07
2018-11-29T00:11:51.434Z,931.09
2018-11-29T00:12:51.428Z,931.04
2018-11-29T00:13:51.475Z,931.03
2018-11-29T00:14:51.616Z,931.04
2018-11-29T00:15:51.484Z,931.04
2018-11-29T00:16:51.504Z,931.07
2018-11-29T00:17:51.517Z,931.01
2018-11-29T00:18:51.567Z,931.07
2018-11-29T00:19:51.647Z,931.07
2018-11-29T00:20:51.602Z,931.11
2018-11-29T00:21:51.561Z,931.08
2018-11-29T00:22:51.586Z,931.10
2018-11-29T00:23:51.611Z,931.14
2018-11-29T00:24:51.765Z,931.15
2018-11-29T00:25:51.686Z,931.18
2018-11-29T00:26:51.662Z,931.27
2018-11-29T00:27:51.653Z,931.29
2018-11-29T00:28:51.791Z,931.32
2018-11-29T00:29:51.834Z,931.30
2018-11-29T00:30:51.712Z,931.25
2018-11-29T00:31:51.741Z,931.24
2018-11-29T00:32:51.722Z,931.24
2018-11-29T00:33:51.864Z,931.25
2018-11-29T00:34:51.962Z,931.25
2018-11-29T00:35:51.763Z,931.29
2018-11-29T00:36:51.796Z,931.28
2018-11-29T00:37:51.816Z,931.25
2018-11-29T00:38:51.808Z,931.27
2018-11-29T00:39:51.932Z,931.28
2018-11-29T00:40:51.894Z,931.25
2018-11-29T00:41:51.876Z,931.23
2018-11-29T00:42:51.933Z,931.24
2018-11-29T00:43:51.902Z,931.24
2018-11-29T00:44:52.047Z,931.20
2018-11-29T00:45:51.925Z,931.21
2018-11-29T00:46:51.950Z,931.23
2018-11-29T00:47:51.961Z,931.22
2018-11-29T00:48:51.955Z,931.26
2018-11-29T00:49:51.980Z,931.25
2018-11-29T00:50:52.103Z,931.27
2018-11-29T00:51:52.001Z,931.31
2018-11-29T00:52:52.024Z,931.29
2018-11-29T00:53:52.037Z,931.29
2018-11-29T00:54:52.068Z,931.27
2018-11-29T00:55:52.294Z,931.27
2018-11-29T00:56:52.074Z,931.27
2018-11-29T00:57:52.224Z,931.29
2018-11-29T00:58:52.105Z,931.19
2018-11-29T00:59:52.150Z,931.25
2018-11-29T01:00:52.354Z,931.17
2018-11-29T01:01:52.159Z,931.22
2018-11-29T01:02:52.222Z,931.20
2018-11-29T01:03:52.201Z,931.22
2018-11-29T01:04:52.203Z,931.21
2018-11-29T01:05:52.389Z,931.22
2018-11-29T01:06:52.235Z,931.21
2018-11-29T01:07:52.432Z,931.19
2018-11-29T01:08:52.350Z,931.21
2018-11-29T01:09:52.282Z,931.20
2018-11-29T01:10:52.288Z,931.21
2018-11-29T01:11:52.434Z,931.17
2018-11-29T01:12:52.434Z,931.16
2018-11-29T01:13:52.345Z,931.18
2018-11-29T01:14:52.348Z,931.19
2018-11-29T01:15:52.405Z,931.16
2018-11-29T01:16:52.392Z,931.15
2018-11-29T01:17:52.521Z,931.15
2018-11-29T01:18:52.427Z,931.11
2018-11-29T01:19:52.422Z,931.15
2018-11-29T01:20:52.482Z,931.12
2018-11-29T01:21:52.476Z,931.14
2018-11-29T01:22:52.575Z,931.12
2018-11-29T01:23:52.486Z,931.11
2018-11-29T01:24:52.520Z,931.08
2018-11-29T01:25:52.515Z,931.08
2018-11-29T01:26:52.537Z,931.05
2018-11-29T01:27:52.665Z,931.00
2018-11-29T01:28:52.563Z,931.00
2018-11-29T01:29:52.596Z,930.99
2018-11-29T01:30:52.591Z,931.05
2018-11-29T01:31:52.619Z,931.01
2018-11-29T01:32:52.785Z,931.01
2018-11-29T01:33:52.638Z,931.00
2018-11-29T01:34:52.662Z,931.03
2018-11-29T01:35:52.683Z,931.03
2018-11-29T01:36:52.683Z,931.05
2018-11-29T01:37:52.858Z,930.98
2018-11-29T01:38:52.717Z,930.97
2018-11-29T01:39:52.727Z,930.96
2018-11-29T01:40:52.746Z,930.96
2018-11-29T01:41:52.762Z,930.96
2018-11-29T01:42:52.947Z,930.95
2018-11-29T01:43:52.831Z,930.97
2018-11-29T01:44:52.925Z,930.92
2018-11-29T01:45:52.947Z,930.88
2018-11-29T01:46:52.836Z,930.85
2018-11-29T01:47:52.915Z,930.84
2018-11-29T01:48:52.873Z,930.88
2018-11-29T01:49:53.034Z,930.81
2018-11-29T01:50:52.911Z,930.82
2018-11-29T01:51:52.918Z,930.83
2018-11-29T01:52:52.927Z,930.80
2018-11-29T01:53:52.965Z,930.79
2018-11-29T01:54:53.081Z,930.78
2018-11-29T01:55:52.986Z,930.75
2018-11-29T01:56:52.994Z,930.76
2018-11-29T01:57:52.994Z,930.70
2018-11-29T01:58:53.020Z,930.75
2018-11-29T01:59:53.131Z,930.70
2018-11-29T02:00:53.055Z,930.68
2018-11-29T02:01:53.054Z,930.68
2018-11-29T02:02:53.099Z,930.69
2018-11-29T02:03:53.117Z,930.65
2018-11-29T02:04:53.272Z,930.67
2018-11-29T02:05:53.135Z,930.66
2018-11-29T02:06:53.139Z,930.70
2018-11-29T02:07:53.153Z,930.69
2018-11-29T02:08:53.176Z,930.65
2018-11-29T02:09:53.458Z,930.68
2018-11-29T02:10:53.206Z,930.67
2018-11-29T02:11:53.340Z,930.61
2018-11-29T02:12:53.228Z,930.58
2018-11-29T02:13:53.241Z,930.59
2018-11-29T02:14:53.423Z,930.57
2018-11-29T02:15:53.342Z,930.59
2018-11-29T02:16:53.322Z,930.61
2018-11-29T02:17:53.306Z,930.60
2018-11-29T02:18:53.335Z,930.58
2018-11-29T02:19:53.460Z,930.59
2018-11-29T02:20:53.402Z,930.57
2018-11-29T02:21:53.371Z,930.56
2018-11-29T02:22:53.387Z,930.51
2018-11-29T02:23:53.382Z,930.47
2018-11-29T02:24:53.512Z,930.47
2018-11-29T02:25:53.423Z,930.45
2018-11-29T02:26:53.466Z,930.46
2018-11-29T02:27:53.457Z,930.47
2018-11-29T02:28:53.477Z,930.44
2018-11-29T02:29:53.633Z,930.42
2018-11-29T02:30:53.498Z,930.45
2018-11-29T02:31:53.534Z,930.42
2018-11-29T02:32:53.528Z,930.36
2018-11-29T02:33:53.564Z,930.38
2018-11-29T02:34:53.654Z,930.41
2018-11-29T02:35:53.589Z,930.39
2018-11-29T02:36:53.586Z,930.39
2018-11-29T02:37:53.624Z,930.37
2018-11-29T02:38:53.636Z,930.37
2018-11-29T02:39:53.782Z,930.32
2018-11-29T02:40:53.668Z,930.30
2018-11-29T02:41:53.714Z,930.29
2018-11-29T02:42:53.690Z,930.25
2018-11-29T02:43:53.709Z,930.24
2018-11-29T02:44:53.809Z,930.24
2018-11-29T02:45:53.746Z,930.22
2018-11-29T02:46:53.741Z,930.21
2018-11-29T02:47:53.747Z,930.26
2018-11-29T02:48:53.777Z,930.25
2018-11-29T02:49:53.835Z,930.24
2018-11-29T02:50:53.802Z,930.25
2018-11-29T02:51:53.837Z,930.25
2018-11-29T02:52:53.851Z,930.29
2018-11-29T02:53:53.841Z,930.30
2018-11-29T02:54:53.960Z,930.32
2018-11-29T02:55:53.892Z,930.33
2018-11-29T02:56:53.893Z,930.34
2018-11-29T02:57:53.944Z,930.34
2018-11-29T02:58:53.926Z,930.31
2018-11-29T02:59:54.044Z,930.30
2018-11-29T03:00:53.943Z,930.25
2018-11-29T03:01:53.959Z,930.29
2018-11-29T03:02:53.982Z,930.27
2018-11-29T03:03:54.020Z,930.25
2018-11-29T03:04:54.113Z,930.29
2018-11-29T03:05:54.042Z,930.29
2018-11-29T03:06:54.037Z,930.26
2018-11-29T03:07:54.067Z,930.27
2018-11-29T03:08:54.070Z,930.29
2018-11-29T03:09:54.303Z,930.28
2018-11-29T03:10:54.102Z,930.30
2018-11-29T03:11:54.144Z,930.29
2018-11-29T03:12:54.151Z,930.26
2018-11-29T03:13:54.148Z,930.25
2018-11-29T03:14:54.285Z,930.23
2018-11-29T03:15:54.179Z,930.24
2018-11-29T03:16:54.197Z,930.19
2018-11-29T03:17:54.215Z,930.19
2018-11-29T03:18:54.235Z,930.14
2018-11-29T03:19:54.405Z,930.15
2018-11-29T03:20:54.245Z,930.13
2018-11-29T03:21:54.311Z,930.13
2018-11-29T03:22:54.291Z,930.12
2018-11-29T03:23:54.289Z,930.11
2018-11-29T03:24:54.426Z,930.11
2018-11-29T03:25:54.344Z,930.08
2018-11-29T03:26:54.346Z,930.07
2018-11-29T03:27:54.356Z,930.00
2018-11-29T03:28:54.362Z,930.01
2018-11-29T03:29:54.542Z,930.00
2018-11-29T03:30:54.413Z,929.98
2018-11-29T03:31:54.541Z,929.94
2018-11-29T03:32:54.440Z,929.95
2018-11-29T03:33:54.442Z,929.93
2018-11-29T03:34:54.589Z,929.93
2018-11-29T03:35:54.478Z,929.92
2018-11-29T03:36:54.500Z,929.95
2018-11-29T03:37:54.523Z,929.88
2018-11-29T03:38:54.511Z,929.90
2018-11-29T03:39:54.635Z,929.88
2018-11-29T03:40:54.564Z,929.93
2018-11-29T03:41:54.561Z,929.91
2018-11-29T03:42:54.574Z,929.90
2018-11-29T03:43:54.608Z,929.88
2018-11-29T03:44:54.757Z,929.84
2018-11-29T03:45:54.635Z,929.81
2018-11-29T03:46:54.652Z,929.77
2018-11-29T03:47:54.779Z,929.78
2018-11-29T03:48:54.667Z,929.79
2018-11-29T03:49:54.791Z,929.79
2018-11-29T03:50:54.706Z,929.78
2018-11-29T03:51:54.726Z,929.78
2018-11-29T03:52:54.722Z,929.80
2018-11-29T03:53:54.871Z,929.76
2018-11-29T03:54:54.924Z,929.76
2018-11-29T03:55:54.778Z,929.77
2018-11-29T03:56:54.795Z,929.79
2018-11-29T03:57:54.810Z,929.80
2018-11-29T03:58:54.817Z,929.74
2018-11-29T03:59:55.000Z,929.73
2018-11-29T04:00:54.838Z,929.76
2018-11-29T04:01:54.877Z,929.68
2018-11-29T04:02:54.891Z,929.68
2018-11-29T04:03:54.883Z,929.63
2018-11-29T04:04:55.015Z,929.62
2018-11-29T04:05:54.921Z,929.62
2018-11-29T04:06:54.954Z,929.65
2018-11-29T04:07:54.960Z,929.61
2018-11-29T04:08:55.089Z,929.60
2018-11-29T04:09:55.233Z,929.56
2018-11-29T04:10:54.992Z,929.56
2018-11-29T04:11:55.069Z,929.53
2018-11-29T04:12:55.061Z,929.54
2018-11-29T04:13:55.166Z,929.49
2018-11-29T04:14:55.165Z,929.50
2018-11-29T04:15:55.198Z,929.50
2018-11-29T04:16:55.089Z,929.52
2018-11-29T04:17:55.094Z,929.45
2018-11-29T04:18:55.124Z,929.47
2018-11-29T04:19:55.230Z,929.45
2018-11-29T04:20:55.160Z,929.48
2018-11-29T04:21:55.159Z,929.44
2018-11-29T04:22:55.180Z,929.45
2018-11-29T04:23:55.196Z,929.42
2018-11-29T04:24:55.417Z,929.41
2018-11-29T04:25:55.249Z,929.39
2018-11-29T04:26:55.283Z,929.42
2018-11-29T04:27:55.271Z,929.39
2018-11-29T04:28:55.284Z,929.40
2018-11-29T04:29:55.395Z,929.37
2018-11-29T04:30:55.300Z,929.37
2018-11-29T04:31:55.303Z,929.34
2018-11-29T04:32:55.449Z,929.32
2018-11-29T04:33:55.348Z,929.34
2018-11-29T04:34:55.405Z,929.27
2018-11-29T04:35:55.389Z,929.25
2018-11-29T04:36:55.383Z,929.25
2018-11-29T04:37:55.601Z,929.24
2018-11-29T04:38:55.429Z,929.27
2018-11-29T04:39:55.430Z,929.23
2018-11-29T04:40:55.569Z,929.34
2018-11-29T04:41:55.485Z,929.36
2018-11-29T04:42:55.674Z,929.33
2018-11-29T04:43:55.523Z,929.30
2018-11-29T04:44:55.522Z,929.33
2018-11-29T04:45:55.531Z,929.34
2018-11-29T04:46:55.544Z,929.32
2018-11-29T04:47:55.553Z,929.30
2018-11-29T04:48:55.761Z,929.32
2018-11-29T04:49:55.589Z,929.31
2018-11-29T04:50:55.716Z,929.24
2018-11-29T04:51:55.622Z,929.23
2018-11-29T04:52:55.617Z,929.22
2018-11-29T04:53:55.785Z,929.23
2018-11-29T04:54:55.670Z,929.22
2018-11-29T04:55:55.721Z,929.17
2018-11-29T04:56:55.804Z,929.23
2018-11-29T04:57:55.688Z,929.23
2018-11-29T04:58:55.829Z,929.19
2018-11-29T04:59:55.742Z,929.23
2018-11-29T05:00:55.735Z,929.24
2018-11-29T05:01:55.761Z,929.20
2018-11-29T05:02:55.895Z,929.16
2018-11-29T05:03:55.777Z,929.21
2018-11-29T05:04:56.012Z,929.20
2018-11-29T05:05:55.825Z,929.16
2018-11-29T05:06:55.829Z,929.18
2018-11-29T05:07:55.851Z,929.15
2018-11-29T05:08:55.854Z,929.13
2018-11-29T05:09:56.069Z,929.15
2018-11-29T05:10:55.886Z,929.12
2018-11-29T05:11:55.915Z,929.13
2018-11-29T05:12:55.915Z,929.09
2018-11-29T05:13:55.938Z,929.08
2018-11-29T05:14:56.152Z,929.09
2018-11-29T05:15:55.953Z,929.08
2018-11-29T05:16:56.018Z,929.01
2018-11-29T05:17:55.985Z,928.99
2018-11-29T05:18:55.997Z,928.97
2018-11-29T05:19:56.126Z,928.94
2018-11-29T05:20:56.041Z,928.90
2018-11-29T05:21:56.064Z,928.87
2018-11-29T05:22:56.062Z,928.84
2018-11-29T05:23:56.079Z,928.84
2018-11-29T05:24:56.414Z,928.88
2018-11-29T05:25:56.113Z,928.88
2018-11-29T05:26:56.132Z,928.88
2018-11-29T05:27:56.145Z,928.82
2018-11-29T05:28:56.156Z,928.82
2018-11-29T05:29:56.390Z,928.79
2018-11-29T05:30:56.176Z,928.75
2018-11-29T05:31:56.213Z,928.76
2018-11-29T05:32:56.201Z,928.76
2018-11-29T05:33:56.236Z,928.77
2018-11-29T05:34:56.278Z,928.74
2018-11-29T05:35:56.268Z,928.76
2018-11-29T05:36:56.264Z,928.72
2018-11-29T05:37:56.279Z,928.77
2018-11-29T05:38:56.287Z,928.78
2018-11-29T05:39:56.510Z,928.75
2018-11-29T05:40:56.354Z,928.78
2018-11-29T05:41:56.359Z,928.76
2018-11-29T05:42:56.353Z,928.76
2018-11-29T05:43:56.382Z,928.74
2018-11-29T05:44:56.494Z,928.73
2018-11-29T05:45:56.391Z,928.76
2018-11-29T05:46:56.426Z,928.77
2018-11-29T05:47:56.434Z,928.78
2018-11-29T05:48:56.460Z,928.79
2018-11-29T05:49:56.466Z,928.78
2018-11-29T05:50:56.521Z,928.79
2018-11-29T05:51:56.707Z,928.78
2018-11-29T05:52:56.520Z,928.79
2018-11-29T05:53:56.522Z,928.79
2018-11-29T05:54:56.542Z,928.82
2018-11-29T05:55:56.559Z,928.81
2018-11-29T05:56:56.832Z,928.84
2018-11-29T05:57:56.562Z,928.85
2018-11-29T05:58:56.712Z,928.83
2018-11-29T05:59:56.620Z,928.81
2018-11-29T06:00:56.623Z,928.80
2018-11-29T06:01:56.890Z,928.78
2018-11-29T06:02:56.659Z,928.76
2018-11-29T06:03:56.690Z,928.74
2018-11-29T06:04:56.735Z,928.73
2018-11-29T06:05:56.691Z,928.74
2018-11-29T06:06:56.918Z,928.72
2018-11-29T06:07:56.720Z,928.76
2018-11-29T06:08:56.754Z,928.77
2018-11-29T06:09:56.759Z,928.79
2018-11-29T06:10:56.773Z,928.82
2018-11-29T06:11:56.901Z,928.80
2018-11-29T06:12:56.799Z,928.81
2018-11-29T06:13:56.814Z,928.82
2018-11-29T06:14:56.881Z,928.84
2018-11-29T06:15:56.846Z,928.82
2018-11-29T06:16:56.980Z,928.82
2018-11-29T06:17:56.878Z,928.86
2018-11-29T06:18:56.881Z,928.84
2018-11-29T06:19:56.919Z,928.82
2018-11-29T06:20:56.924Z,928.83
2018-11-29T06:21:57.040Z,928.84
2018-11-29T06:22:56.969Z,928.85
2018-11-29T06:23:56.977Z,928.83
2018-11-29T06:24:56.986Z,928.85
2018-11-29T06:25:56.988Z,928.87
2018-11-29T06:26:57.105Z,928.85
2018-11-29T06:27:57.015Z,928.85
2018-11-29T06:28:57.028Z,928.84
2018-11-29T06:29:57.054Z,928.82
2018-11-29T06:30:57.059Z,928.84
2018-11-29T06:31:57.174Z,928.86
2018-11-29T06:32:57.109Z,928.87
2018-11-29T06:33:57.121Z,928.84
2018-11-29T06:34:57.133Z,928.92
2018-11-29T06:36:01.973Z,928.88
2018-11-29T06:36:57.275Z,928.87
2018-11-29T06:37:57.182Z,928.88
2018-11-29T06:38:57.220Z,928.88
2018-11-29T06:39:57.249Z,928.91
2018-11-29T06:40:57.209Z,928.91
2018-11-29T06:41:57.318Z,928.91
2018-11-29T06:42:57.237Z,928.88
2018-11-29T06:43:57.270Z,928.91
2018-11-29T06:44:57.290Z,928.90
2018-11-29T06:45:57.292Z,928.91
2018-11-29T06:46:57.361Z,928.91
2018-11-29T06:47:57.322Z,928.91
2018-11-29T06:48:57.334Z,928.85
2018-11-29T06:49:57.527Z,928.87
2018-11-29T06:50:57.348Z,928.86
2018-11-29T06:51:57.363Z,928.90
2018-11-29T06:52:57.401Z,928.89
2018-11-29T06:53:57.416Z,928.93
2018-11-29T06:54:57.694Z,928.92
2018-11-29T06:55:57.450Z,928.94
2018-11-29T06:56:57.456Z,928.93
2018-11-29T06:57:57.478Z,928.96
2018-11-29T06:58:57.482Z,928.93
2018-11-29T06:59:57.606Z,928.96
2018-11-29T07:00:57.513Z,928.92
2018-11-29T07:01:57.521Z,928.97
2018-11-29T07:02:57.541Z,928.93
2018-11-29T07:03:57.566Z,928.92
2018-11-29T07:04:57.761Z,928.96
2018-11-29T07:05:57.581Z,928.96
2018-11-29T07:06:57.603Z,928.95
2018-11-29T07:07:57.621Z,928.98
2018-11-29T07:08:57.641Z,928.94
2018-11-29T07:09:57.749Z,928.92
2018-11-29T07:10:57.663Z,928.95
2018-11-29T07:13:57.697Z,928.94
2018-11-29T07:14:57.822Z,928.96
2018-11-29T07:15:57.741Z,928.98
2018-11-29T07:16:57.739Z,929.00
2018-11-29T07:17:57.762Z,929.01
2018-11-29T07:18:57.776Z,929.01
2018-11-29T07:19:57.888Z,928.99
2018-11-29T07:20:57.839Z,928.99
2018-11-29T07:21:57.821Z,928.96
2018-11-29T07:22:57.846Z,928.96
2018-11-29T07:23:57.840Z,928.93
2018-11-29T07:24:58.120Z,928.94
2018-11-29T07:25:57.997Z,928.89
2018-11-29T07:26:57.890Z,928.84
2018-11-29T07:27:57.905Z,928.79
2018-11-29T07:28:57.926Z,928.79
2018-11-29T07:29:58.036Z,928.81
2018-11-29T07:30:57.963Z,928.82
2018-11-29T07:31:58.002Z,928.85
2018-11-29T07:32:57.975Z,928.84
2018-11-29T07:33:57.997Z,928.84
2018-11-29T07:34:58.068Z,928.83
2018-11-29T07:35:58.030Z,928.85
2018-11-29T07:36:58.045Z,928.82
2018-11-29T07:37:58.061Z,928.87
2018-11-29T07:38:58.268Z,928.86
2018-11-29T07:39:58.098Z,928.86
2018-11-29T07:40:58.090Z,928.88
2018-11-29T07:41:58.128Z,928.94
2018-11-29T07:42:58.128Z,928.95
2018-11-29T07:43:58.269Z,928.96
2018-11-29T07:44:58.152Z,928.97
2018-11-29T07:45:58.289Z,929.00
2018-11-29T07:46:58.196Z,929.00
2018-11-29T07:47:58.246Z,928.99
2018-11-29T07:48:58.336Z,929.00
2018-11-29T07:49:58.224Z,929.00
2018-11-29T07:50:58.255Z,928.99
2018-11-29T07:51:58.280Z,928.97
2018-11-29T07:52:58.278Z,929.01
2018-11-29T07:53:58.396Z,929.01
2018-11-29T07:54:58.308Z,928.98
2018-11-29T07:55:58.332Z,929.03
2018-11-29T07:56:58.347Z,929.07
2018-11-29T07:57:58.475Z,929.13
2018-11-29T07:58:58.449Z,929.14
2018-11-29T07:59:58.391Z,929.12
2018-11-29T08:00:58.378Z,929.15
2018-11-29T08:01:58.411Z,929.11
2018-11-29T08:02:58.547Z,929.16
2018-11-29T08:03:58.563Z,929.15
2018-11-29T08:04:58.458Z,929.21
2018-11-29T08:05:58.472Z,929.20
2018-11-29T08:06:58.504Z,929.21
2018-11-29T08:07:58.506Z,929.22
2018-11-29T08:08:58.615Z,929.20
2018-11-29T08:09:58.524Z,929.22
2018-11-29T08:10:58.555Z,929.20
2018-11-29T08:11:58.577Z,929.17
2018-11-29T08:12:58.574Z,929.16
2018-11-29T08:13:58.678Z,929.20
2018-11-29T08:14:58.718Z,929.16
2018-11-29T08:15:58.628Z,929.17
2018-11-29T08:16:58.653Z,929.16
2018-11-29T08:17:58.667Z,929.15
2018-11-29T08:18:58.979Z,929.11
2018-11-29T08:19:58.686Z,929.12
2018-11-29T08:20:58.689Z,929.16
2018-11-29T08:21:58.730Z,929.16
2018-11-29T08:22:58.735Z,929.14
2018-11-29T08:23:58.832Z,929.14
2018-11-29T08:24:58.761Z,929.18
2018-11-29T08:25:58.756Z,929.15
2018-11-29T08:26:58.783Z,929.21
2018-11-29T08:27:58.794Z,929.21
2018-11-29T08:28:58.899Z,929.21
2018-11-29T08:29:58.824Z,929.17
2018-11-29T08:30:58.841Z,929.15
2018-11-29T08:31:58.868Z,929.16
2018-11-29T08:32:58.873Z,929.13
2018-11-29T08:33:59.092Z,929.17
2018-11-29T08:34:58.920Z,929.16
2018-11-29T08:35:58.912Z,929.19
2018-11-29T08:36:58.934Z,929.17
2018-11-29T08:37:58.938Z,929.19
2018-11-29T08:38:59.105Z,929.23
2018-11-29T08:39:59.092Z,929.23
2018-11-29T08:40:58.975Z,929.26
2018-11-29T08:41:59.124Z,929.27
2018-11-29T08:42:59.072Z,929.31
2018-11-29T08:43:59.031Z,929.29
2018-11-29T08:44:59.241Z,929.28
2018-11-29T08:45:59.070Z,929.23
2018-11-29T08:46:59.079Z,929.27
2018-11-29T08:47:59.102Z,929.30
2018-11-29T08:48:59.109Z,929.30
2018-11-29T08:49:59.220Z,929.30
2018-11-29T08:50:59.140Z,929.30
2018-11-29T08:51:59.163Z,929.31
2018-11-29T08:52:59.161Z,929.33
2018-11-29T08:53:59.184Z,929.34
2018-11-29T08:54:59.314Z,929.32
2018-11-29T08:55:59.259Z,929.33
2018-11-29T08:56:59.228Z,929.28
2018-11-29T08:57:59.251Z,929.29
2018-11-29T08:58:59.266Z,929.28
2018-11-29T08:59:59.379Z,929.31
2018-11-29T09:00:59.303Z,929.28
2018-11-29T09:01:59.310Z,929.28
2018-11-29T09:02:59.315Z,929.30
2018-11-29T09:03:59.389Z,929.27
2018-11-29T09:04:59.353Z,929.25
2018-11-29T09:05:59.436Z,929.26
2018-11-29T09:06:59.508Z,929.28
2018-11-29T09:07:59.408Z,929.27
2018-11-29T09:08:59.415Z,929.30
2018-11-29T09:09:59.434Z,929.31
2018-11-29T09:10:59.657Z,929.34
2018-11-29T09:11:59.486Z,929.33
2018-11-29T09:12:59.491Z,929.33
2018-11-29T09:13:59.507Z,929.35
2018-11-29T09:14:59.515Z,929.36
2018-11-29T09:15:59.638Z,929.38
2018-11-29T09:16:59.551Z,929.37
2018-11-29T09:17:59.588Z,929.37
2018-11-29T09:18:59.603Z,929.41
2018-11-29T09:19:59.613Z,929.42
2018-11-29T09:20:59.685Z,929.42
2018-11-29T09:21:59.646Z,929.45
2018-11-29T09:22:59.712Z,929.45
2018-11-29T09:23:59.687Z,929.48
2018-11-29T09:24:59.675Z,929.48
2018-11-29T09:25:59.799Z,929.51
2018-11-29T09:26:59.719Z,929.53
2018-11-29T09:27:59.750Z,929.55
2018-11-29T09:28:59.760Z,929.51
2018-11-29T09:29:59.757Z,929.55
2018-11-29T09:30:59.876Z,929.52
2018-11-29T09:31:59.812Z,929.58
2018-11-29T09:32:59.871Z,929.61
2018-11-29T09:33:59.831Z,929.63
2018-11-29T09:34:59.856Z,929.63
2018-11-29T09:36:00.069Z,929.67
2018-11-29T09:36:59.896Z,929.64
2018-11-29T09:37:59.909Z,929.69
2018-11-29T09:38:59.911Z,929.68
2018-11-29T09:39:59.946Z,929.72
2018-11-29T09:41:00.046Z,929.69
2018-11-29T09:41:59.978Z,929.70
2018-11-29T09:42:59.995Z,929.71
2018-11-29T09:44:00.041Z,929.75
2018-11-29T09:45:00.034Z,929.76
2018-11-29T09:46:00.141Z,929.77
2018-11-29T09:47:00.043Z,929.77
2018-11-29T09:48:00.110Z,929.77
2018-11-29T09:49:00.110Z,929.77
2018-11-29T09:50:00.111Z,929.80
2018-11-29T09:51:00.228Z,929.80
2018-11-29T09:52:00.143Z,929.75
2018-11-29T09:53:00.151Z,929.74
2018-11-29T09:54:00.183Z,929.79
2018-11-29T09:55:00.203Z,929.77
2018-11-29T09:56:00.312Z,929.80
2018-11-29T09:57:00.234Z,929.79
2018-11-29T09:58:00.315Z,929.81
2018-11-29T09:59:00.273Z,929.83
2018-11-29T10:00:00.288Z,929.85
2018-11-29T10:01:00.498Z,929.84
2018-11-29T10:02:00.301Z,929.95
2018-11-29T10:03:00.363Z,929.92
2018-11-29T10:04:00.360Z,929.91
2018-11-29T10:05:00.383Z,929.91
2018-11-29T10:06:00.439Z,929.93
2018-11-29T10:07:00.399Z,929.96
2018-11-29T10:08:00.437Z,929.99
2018-11-29T10:09:00.438Z,930.04
2018-11-29T10:10:00.461Z,929.99
2018-11-29T10:11:00.690Z,930.03
2018-11-29T10:12:00.505Z,930.04
2018-11-29T10:13:00.521Z,930.04
2018-11-29T10:14:00.655Z,930.05
2018-11-29T10:15:00.564Z,930.08
2018-11-29T10:16:00.611Z,930.10
2018-11-29T10:17:00.583Z,930.04
2018-11-29T10:18:00.729Z,930.06
2018-11-29T10:19:00.644Z,930.06
2018-11-29T10:20:00.859Z,930.09
2018-11-29T10:21:00.661Z,930.08
2018-11-29T10:22:00.686Z,930.12
2018-11-29T10:23:00.724Z,930.15
2018-11-29T10:24:00.721Z,930.12
2018-11-29T10:25:00.886Z,930.10
2018-11-29T10:26:00.781Z,930.10
2018-11-29T10:27:00.811Z,930.09
2018-11-29T10:28:00.815Z,930.11
2018-11-29T10:29:00.834Z,930.09
2018-11-29T10:30:01.080Z,930.08
2018-11-29T10:31:00.880Z,930.10
2018-11-29T10:32:00.943Z,930.15
2018-11-29T10:33:00.930Z,930.18
2018-11-29T10:34:00.957Z,930.19
2018-11-29T10:35:01.013Z,930.16
2018-11-29T10:36:01.115Z,930.20
2018-11-29T10:37:01.035Z,930.16
2018-11-29T10:38:01.034Z,930.13
2018-11-29T10:39:01.067Z,930.10
2018-11-29T10:40:01.187Z,930.07
2018-11-29T10:41:01.110Z,930.10
2018-11-29T10:42:01.156Z,930.09
2018-11-29T10:43:01.172Z,930.10
2018-11-29T10:44:01.195Z,930.11
2018-11-29T10:45:01.288Z,930.11
2018-11-29T10:46:01.224Z,930.05
2018-11-29T10:47:01.249Z,930.05
2018-11-29T10:48:01.280Z,930.02
2018-11-29T10:49:01.300Z,930.03
2018-11-29T10:50:01.425Z,930.06
2018-11-29T10:51:01.358Z,929.99
2018-11-29T10:52:01.389Z,930.05
2018-11-29T10:53:01.399Z,930.08
2018-11-29T10:56:01.564Z,930.12
2018-11-29T10:57:01.497Z,930.10
2018-11-29T10:58:01.514Z,930.11
2018-11-29T10:59:01.547Z,930.06
2018-11-29T11:00:01.588Z,930.12
2018-11-29T11:01:01.715Z,930.19
2018-11-29T11:02:01.637Z,930.18
2018-11-29T11:03:01.658Z,930.14
2018-11-29T11:04:01.685Z,930.20
2018-11-29T11:05:01.702Z,930.19
2018-11-29T11:06:01.848Z,930.18
2018-11-29T11:07:01.773Z,930.17
2018-11-29T11:08:07.847Z,930.17
2018-11-29T11:09:01.817Z,930.16
2018-11-29T11:10:01.855Z,930.15
2018-11-29T11:11:01.920Z,930.17
2018-11-29T11:12:01.897Z,930.15
2018-11-29T11:13:01.977Z,930.15
2018-11-29T11:14:01.955Z,930.12
2018-11-29T11:15:01.962Z,930.15
2018-11-29T11:16:02.001Z,930.12
2018-11-29T11:17:02.013Z,930.15
2018-11-29T11:18:02.144Z,930.15
2018-11-29T11:19:02.081Z,930.13
2018-11-29T11:20:02.085Z,930.15
2018-11-29T11:21:02.138Z,930.11
2018-11-29T11:22:02.160Z,930.10
2018-11-29T11:23:02.380Z,930.08
2018-11-29T11:24:02.245Z,930.13
2018-11-29T11:25:02.252Z,930.14
2018-11-29T11:26:02.260Z,930.15
2018-11-29T11:27:02.283Z,930.18
2018-11-29T11:28:02.529Z,930.21
2018-11-29T11:29:02.337Z,930.20
2018-11-29T11:30:02.368Z,930.24
2018-11-29T11:31:02.406Z,930.58
2018-11-29T11:32:02.411Z,930.57
2018-11-29T11:33:02.648Z,930.37
2018-11-29T11:34:02.517Z,930.35
2018-11-29T11:35:02.547Z,930.33
2018-11-29T11:36:02.513Z,930.37
2018-11-29T11:37:02.551Z,930.48
2018-11-29T11:38:02.673Z,930.64
2018-11-29T11:39:02.608Z,931.04
2018-11-29T11:40:02.664Z,931.08
2018-11-29T11:41:02.674Z,930.92
2018-11-29T11:42:02.690Z,930.55
2018-11-29T11:43:05.396Z,930.45
2018-11-29T11:44:02.731Z,930.40
2018-11-29T11:45:02.802Z,930.36
2018-11-29T11:46:02.839Z,930.42
2018-11-29T11:47:02.812Z,930.41
2018-11-29T11:48:03.691Z,930.70
2018-11-29T11:49:03.000Z,931.04
2018-11-29T11:50:02.897Z,931.27
2018-11-29T11:51:02.939Z,931.20
2018-11-29T11:52:02.977Z,931.22
2018-11-29T11:53:03.102Z,930.99
2018-11-29T11:54:03.024Z,930.57
2018-11-29T11:55:03.056Z,930.41
2018-11-29T11:56:03.082Z,930.43
2018-11-29T11:57:03.109Z,930.36
2018-11-29T11:58:03.166Z,930.34
2018-11-29T11:59:03.154Z,930.33
2018-11-29T12:00:03.178Z,930.30
2018-11-29T12:01:03.257Z,930.29
2018-11-29T12:02:03.235Z,930.28
2018-11-29T12:03:03.326Z,930.32
2018-11-29T12:04:03.316Z,930.36
2018-11-29T12:05:03.350Z,930.38
2018-11-29T12:06:03.370Z,930.47
2018-11-29T12:07:03.390Z,930.81
2018-11-29T12:08:03.500Z,930.99
2018-11-29T12:09:03.492Z,930.62
2018-11-29T12:10:03.519Z,930.28
2018-11-29T12:11:03.488Z,930.18
2018-11-29T12:12:03.534Z,930.79
2018-11-29T12:13:03.558Z,931.38
2018-11-29T12:14:03.677Z,931.37
2018-11-29T12:15:03.606Z,931.17
2018-11-29T12:16:03.649Z,930.68
2018-11-29T12:17:03.676Z,930.42
2018-11-29T12:18:03.696Z,930.40
2018-11-29T12:19:03.921Z,930.37
2018-11-29T12:20:03.755Z,930.40
2018-11-29T12:21:03.797Z,930.41
2018-11-29T12:22:03.823Z,930.76
2018-11-29T12:23:03.980Z,931.18
2018-11-29T12:24:03.970Z,931.34
2018-11-29T12:25:03.894Z,931.30
2018-11-29T12:26:03.959Z,931.36
2018-11-29T12:27:03.976Z,931.35
2018-11-29T12:28:04.005Z,931.47
2018-11-29T12:29:04.064Z,931.43
2018-11-29T12:30:04.043Z,931.10
2018-11-29T12:31:04.084Z,930.77
2018-11-29T12:32:04.123Z,930.82
2018-11-29T12:33:04.129Z,930.71